Time;durP1;ratioP1;P1;durP2;ratioP2;P2;SDS_P1;SDS_P2;PMS_P1;PMS_P2;Temp;Humidity;BMP_temperature;BMP_pressure;BME280_temperature;BME280_humidity;BME280_pressure;Samples;Min_cycle;Max_cycle;Signal;HPM_P1;HPM_P2
2021/04/21 00:01:10;;;;;;;;;;;6.90;99.90;;;;;;10321090;28;19925;-65
2021/04/21 00:06:13;;;;;;;;;;;6.80;99.90;;;;;;10323978;28;20336;-65
2021/04/21 00:11:15;;;;;;;;;;;6.50;99.90;;;;;;10321381;28;19929;-65
2021/04/21 00:16:17;;;;;;;;;;;6.50;99.90;;;;;;10320751;28;20457;-65
2021/04/21 00:21:19;;;;;;;;;;;6.60;99.90;;;;;;10321531;28;19926;-65
2021/04/21 00:26:21;;;;;;;;;;;6.50;99.90;;;;;;10322681;28;19977;-65
2021/04/21 00:31:23;;;;;;;;;;;6.50;99.90;;;;;;10320407;28;20377;-65
2021/04/21 00:36:26;;;;;;;;;;;6.50;99.90;;;;;;10320718;28;20012;-65
2021/04/21 00:41:34;;;;;;;;;;;6.40;99.90;;;;;;10319031;28;20004;-65
2021/04/21 00:46:41;;;;;;;;;;;6.30;99.90;;;;;;10319710;28;20357;-64
2021/04/21 00:51:47;;;;;;;;;;;6.20;99.90;;;;;;10334947;28;19949;-65
2021/04/21 00:56:48;;;;;;;;;;;6.10;99.90;;;;;;10318931;28;20240;-64
2021/04/21 01:01:51;;;;;;;;;;;6.10;99.90;;;;;;10319008;28;20024;-65
2021/04/21 01:06:53;;;;;;;;;;;6.00;99.90;;;;;;10319525;28;20324;-64
2021/04/21 01:11:58;;;;;;;;;;;6.00;99.90;;;;;;10365755;28;19924;-64
2021/04/21 01:17:02;;;;;;;;;;;5.90;99.90;;;;;;10333959;28;20029;-65
2021/04/21 01:22:24;;;;;;;;;;;5.80;99.90;;;;;;10319732;28;20259;-65
2021/04/21 01:27:44;;;;;;;;;;;5.70;99.90;;;;;;10316991;28;19947;-65
2021/04/21 01:32:53;;;;;;;;;;;5.60;99.90;;;;;;10280399;28;19926;-65
2021/04/21 01:37:55;;;;;;;;;;;5.60;99.90;;;;;;10321406;28;19926;-64
2021/04/21 01:43:04;;;;;;;;;;;5.50;99.90;;;;;;10318727;28;19926;-65
2021/04/21 01:48:12;;;;;;;;;;;5.50;99.90;;;;;;10307301;28;19932;-65
2021/04/21 01:53:34;;;;;;;;;;;5.50;99.90;;;;;;10317780;28;20282;-64
2021/04/21 01:58:45;;;;;;;;;;;5.40;99.90;;;;;;10441277;28;19928;-65
2021/04/21 02:03:48;;;;;;;;;;;5.40;99.90;;;;;;10382763;28;19984;-65
2021/04/21 02:09:01;;;;;;;;;;;5.40;99.90;;;;;;10325524;28;19926;-65
2021/04/21 02:14:21;;;;;;;;;;;5.30;99.90;;;;;;10324793;28;20346;-65
2021/04/21 02:19:34;;;;;;;;;;;5.20;99.90;;;;;;10326430;28;20036;-65
2021/04/21 02:24:39;;;;;;;;;;;5.20;99.90;;;;;;10324540;28;19973;-65
2021/04/21 02:29:40;;;;;;;;;;;5.20;99.90;;;;;;10324044;28;20351;-65
2021/04/21 02:34:41;;;;;;;;;;;5.10;99.90;;;;;;10323831;28;20017;-65
2021/04/21 02:39:46;;;;;;;;;;;5.00;99.90;;;;;;10324502;28;19933;-64
2021/04/21 02:44:53;;;;;;;;;;;5.00;99.90;;;;;;10325355;28;20401;-65
2021/04/21 02:50:07;;;;;;;;;;;4.90;99.90;;;;;;10364394;28;20341;-65
2021/04/21 02:55:20;;;;;;;;;;;4.90;99.90;;;;;;10323345;28;19929;-64
2021/04/21 03:00:30;;;;;;;;;;;4.90;99.90;;;;;;10322161;28;20394;-65
2021/04/21 03:05:32;;;;;;;;;;;4.80;99.90;;;;;;10318601;28;20024;-64
2021/04/21 03:10:56;;;;;;;;;;;4.50;99.90;;;;;;10317885;28;19926;-65
2021/04/21 03:16:00;;;;;;;;;;;4.30;99.90;;;;;;10318269;28;19980;-65
2021/04/21 03:21:07;;;;;;;;;;;4.40;99.90;;;;;;10322648;28;19926;-65
2021/04/21 03:26:09;;;;;;;;;;;4.40;99.90;;;;;;10322342;28;20004;-65
2021/04/21 03:31:12;;;;;;;;;;;4.40;99.90;;;;;;10323093;28;19972;-65
2021/04/21 03:36:14;;;;;;;;;;;4.40;99.90;;;;;;10321176;28;20021;-64
2021/04/21 03:41:15;;;;;;;;;;;4.40;99.90;;;;;;10320461;28;20441;-64
2021/04/21 03:46:17;;;;;;;;;;;4.40;99.90;;;;;;10421365;28;20464;-65
2021/04/21 03:51:20;;;;;;;;;;;4.30;99.90;;;;;;10323680;28;19930;-65
2021/04/21 03:56:23;;;;;;;;;;;4.20;99.90;;;;;;10352732;28;19982;-65
2021/04/21 04:01:26;;;;;;;;;;;4.20;99.90;;;;;;10321027;28;20012;-65
2021/04/21 04:06:33;;;;;;;;;;;4.20;99.90;;;;;;10321891;28;20486;-65
2021/04/21 04:11:41;;;;;;;;;;;4.20;99.90;;;;;;10320955;28;20029;-65
2021/04/21 04:16:43;;;;;;;;;;;4.20;99.90;;;;;;10322818;28;19926;-65
2021/04/21 04:21:47;;;;;;;;;;;4.10;99.90;;;;;;10343038;28;19935;-65
2021/04/21 04:26:49;;;;;;;;;;;4.10;99.90;;;;;;10342372;28;20025;-65
2021/04/21 04:31:52;;;;;;;;;;;4.10;99.90;;;;;;10306299;28;20378;-65
2021/04/21 04:36:54;;;;;;;;;;;4.10;99.90;;;;;;10321255;28;19977;-65
2021/04/21 04:41:57;;;;;;;;;;;3.80;99.90;;;;;;10320979;28;20028;-65
2021/04/21 04:47:03;;;;;;;;;;;3.90;99.90;;;;;;10321195;28;19926;-64
2021/04/21 04:52:06;;;;;;;;;;;4.10;99.90;;;;;;10354982;28;19982;-65
2021/04/21 04:57:09;;;;;;;;;;;4.30;99.90;;;;;;10414208;28;20008;-65
2021/04/21 05:02:12;;;;;;;;;;;4.40;99.90;;;;;;10319482;28;19930;-65
2021/04/21 05:07:23;;;;;;;;;;;4.50;99.90;;;;;;10296587;28;20018;-65
2021/04/21 05:12:25;;;;;;;;;;;4.70;99.90;;;;;;10319416;28;20016;-65
2021/04/21 05:17:32;;;;;;;;;;;4.80;99.90;;;;;;10321922;28;20016;-65
2021/04/21 05:22:49;;;;;;;;;;;5.00;99.90;;;;;;10318421;28;19926;-65
2021/04/21 05:28:13;;;;;;;;;;;5.20;99.90;;;;;;10318342;28;19936;-65
2021/04/21 05:33:33;;;;;;;;;;;5.30;99.90;;;;;;10318441;28;19968;-65
2021/04/21 05:38:34;;;;;;;;;;;5.50;99.90;;;;;;10318883;28;20016;-65
2021/04/21 05:43:38;;;;;;;;;;;5.60;99.90;;;;;;10318812;28;19973;-65
2021/04/21 05:48:49;;;;;;;;;;;5.70;99.90;;;;;;10317769;28;20008;-65
2021/04/21 05:54:14;;;;;;;;;;;5.80;99.90;;;;;;10317689;28;20447;-65
2021/04/21 05:59:30;;;;;;;;;;;5.80;99.90;;;;;;10281368;28;20028;-65
2021/04/21 06:04:32;;;;;;;;;;;5.90;99.90;;;;;;10317977;28;19988;-65
2021/04/21 06:09:33;;;;;;;;;;;6.10;99.90;;;;;;10400069;28;20955;-65
2021/04/21 06:14:35;;;;;;;;;;;6.20;99.90;;;;;;10361582;28;20028;-65
2021/04/21 06:19:36;;;;;;;;;;;6.30;99.90;;;;;;10315977;28;20353;-65
2021/04/21 06:24:38;;;;;;;;;;;6.60;99.90;;;;;;10318142;28;19934;-65
2021/04/21 06:29:40;;;;;;;;;;;6.90;99.90;;;;;;10316704;28;19926;-65
2021/04/21 06:34:41;;;;;;;;;;;7.10;99.90;;;;;;10317242;28;19972;-65
2021/04/21 06:39:42;;;;;;;;;;;7.40;99.90;;;;;;10316505;28;19969;-65
2021/04/21 06:44:46;;;;;;;;;;;7.60;99.90;;;;;;10316865;28;19982;-65
2021/04/21 06:49:58;;;;;;;;;;;8.00;99.90;;;;;;10316259;28;19936;-65
2021/04/21 06:55:06;;;;;;;;;;;8.10;99.90;;;;;;10324351;28;19969;-66
2021/04/21 07:00:09;;;;;;;;;;;8.30;99.90;;;;;;10323442;28;19933;-65
2021/04/21 07:05:26;;;;;;;;;;;8.60;99.90;;;;;;10322979;28;20012;-65
2021/04/21 07:10:27;;;;;;;;;;;8.90;99.90;;;;;;10355487;28;20044;-65
2021/04/21 07:15:30;;;;;;;;;;;9.00;99.90;;;;;;10383637;28;19926;-66
2021/04/21 07:20:33;;;;;;;;;;;9.20;99.90;;;;;;10323303;28;19980;-65
2021/04/21 07:25:34;;;;;;;;;;;9.60;99.90;;;;;;10322860;28;19982;-65
2021/04/21 07:30:36;;;;;;;;;;;10.00;99.90;;;;;;10322706;28;19980;-65
2021/04/21 07:35:37;;;;;;;;;;;10.40;99.90;;;;;;10322467;28;20368;-65
2021/04/21 07:40:39;;;;;;;;;;;10.50;99.90;;;;;;10324405;28;19973;-65
2021/04/21 07:45:42;;;;;;;;;;;11.00;99.90;;;;;;10322925;28;19929;-65
2021/04/21 07:50:43;;;;;;;;;;;11.50;99.90;;;;;;10323945;28;20320;-65
2021/04/21 07:56:04;;;;;;;;;;;12.50;99.90;;;;;;10322012;28;19926;-66
2021/04/21 08:01:05;;;;;;;;;;;12.70;99.90;;;;;;10321338;28;20052;-65
2021/04/21 08:06:06;;;;;;;;;;;13.30;98.60;;;;;;10320442;28;20012;-66
2021/04/21 08:11:07;;;;;;;;;;;13.80;97.40;;;;;;10322064;28;19926;-65
2021/04/21 08:16:22;;;;;;;;;;;14.00;94.70;;;;;;10320608;28;20293;-66
2021/04/21 08:21:42;;;;;;;;;;;14.30;92.70;;;;;;10322431;28;19932;-66
2021/04/21 08:26:58;;;;;;;;;;;14.60;92.30;;;;;;10320021;28;19930;-66
2021/04/21 08:32:00;;;;;;;;;;;14.90;91.10;;;;;;10320681;28;20028;-66
2021/04/21 08:37:02;;;;;;;;;;;15.20;83.60;;;;;;10299089;28;19926;-61
2021/04/21 08:42:05;;;;;;;;;;;15.50;79.50;;;;;;10316471;28;19937;-62
2021/04/21 08:47:12;;;;;;;;;;;15.50;79.50;;;;;;10323284;28;20226;-62
2021/04/21 08:52:15;;;;;;;;;;;15.80;75.00;;;;;;10405046;28;19979;-62
2021/04/21 08:57:17;;;;;;;;;;;15.60;73.50;;;;;;10406107;28;19955;-62
2021/04/21 09:02:18;;;;;;;;;;;15.90;72.30;;;;;;10405586;28;20353;-62
2021/04/21 09:07:19;;;;;;;;;;;16.10;71.50;;;;;;10416549;28;19991;-62
2021/04/21 09:12:22;;;;;;;;;;;16.50;70.80;;;;;;10396748;28;20020;-62
2021/04/21 09:17:23;;;;;;;;;;;16.80;70.00;;;;;;10405002;28;20031;-62
2021/04/21 09:22:25;;;;;;;;;;;17.00;68.00;;;;;;10404329;28;20293;-62
2021/04/21 09:27:33;;;;;;;;;;;16.90;68.70;;;;;;10405046;28;19926;-61
2021/04/21 09:32:42;;;;;;;;;;;16.60;67.30;;;;;;10405631;28;20768;-62
2021/04/21 09:37:43;;;;;;;;;;;16.80;67.20;;;;;;10400134;28;19931;-62
2021/04/21 09:42:53;;;;;;;;;;;16.90;63.60;;;;;;10379333;28;19971;-62
2021/04/21 09:48:05;;;;;;;;;;;16.70;64.60;;;;;;10398427;28;20341;-62
2021/04/21 09:53:22;;;;;;;;;;;16.80;64.90;;;;;;10403329;28;20016;-62
2021/04/21 09:58:30;;;;;;;;;;;17.40;60.80;;;;;;10411640;28;19925;-62
2021/04/21 10:03:33;;;;;;;;;;;17.60;61.00;;;;;;10402607;28;20389;-62
2021/04/21 10:08:34;;;;;;;;;;;17.90;60.30;;;;;;10403204;28;20393;-62
2021/04/21 10:13:43;;;;;;;;;;;18.40;59.40;;;;;;10403145;28;19925;-62
2021/04/21 10:18:45;;;;;;;;;;;19.00;55.20;;;;;;10408594;28;19979;-61
2021/04/21 10:23:48;;;;;;;;;;;18.50;55.00;;;;;;10419229;28;19925;-62
2021/04/21 10:28:50;;;;;;;;;;;18.00;54.50;;;;;;10391801;28;20032;-62
2021/04/21 10:33:52;;;;;;;;;;;17.70;55.10;;;;;;10398612;28;20480;-62
2021/04/21 10:38:53;;;;;;;;;;;17.40;55.40;;;;;;10401614;28;20016;-62
2021/04/21 10:44:10;;;;;;;;;;;17.30;55.20;;;;;;10402235;28;20037;-62
2021/04/21 10:49:30;;;;;;;;;;;17.00;57.00;;;;;;10403041;28;20429;-62
2021/04/21 10:54:32;;;;;;;;;;;16.90;57.50;;;;;;10403372;28;20015;-62
2021/04/21 10:59:52;;;;;;;;;;;17.10;57.50;;;;;;10403123;28;20031;-62
2021/04/21 11:05:07;;;;;;;;;;;17.00;57.70;;;;;;10403043;28;20266;-62
2021/04/21 11:10:29;;;;;;;;;;;17.00;57.60;;;;;;10402628;28;20008;-62
2021/04/21 11:15:40;;;;;;;;;;;16.80;58.00;;;;;;10401651;28;19940;-62
2021/04/21 11:20:45;;;;;;;;;;;17.20;58.50;;;;;;10390190;28;19979;-62
2021/04/21 11:25:46;;;;;;;;;;;17.90;55.00;;;;;;10401644;28;19960;-62
2021/04/21 11:30:47;;;;;;;;;;;18.40;55.10;;;;;;10391286;28;19933;-62
2021/04/21 11:35:50;;;;;;;;;;;19.00;55.30;;;;;;10375492;28;19978;-62
2021/04/21 11:41:11;;;;;;;;;;;19.40;53.20;;;;;;10407480;28;19979;-62
2021/04/21 11:46:32;;;;;;;;;;;19.10;52.80;;;;;;10406612;28;20107;-62
2021/04/21 11:51:44;;;;;;;;;;;18.20;65.20;;;;;;10405793;28;19929;-62
2021/04/21 11:56:46;;;;;;;;;;;16.20;95.00;;;;;;10380545;28;20003;-63
2021/04/21 12:01:47;;;;;;;;;;;14.90;99.90;;;;;;10407351;28;20012;-63
2021/04/21 12:06:49;;;;;;;;;;;14.70;99.90;;;;;;10406813;28;19929;-63
2021/04/21 12:11:57;;;;;;;;;;;14.60;99.90;;;;;;10408006;28;19929;-62
2021/04/21 12:16:58;;;;;;;;;;;14.30;99.90;;;;;;10404432;28;20334;-63
2021/04/21 12:22:00;;;;;;;;;;;14.40;99.90;;;;;;10405212;28;20362;-63
2021/04/21 12:27:01;;;;;;;;;;;14.50;99.90;;;;;;10404849;28;19925;-63
2021/04/21 12:32:06;;;;;;;;;;;14.40;99.90;;;;;;10403787;28;19973;-63
2021/04/21 12:37:07;;;;;;;;;;;14.30;99.90;;;;;;10400464;28;20393;-63
2021/04/21 12:42:10;;;;;;;;;;;14.10;99.90;;;;;;10392192;28;19939;-63
2021/04/21 12:47:12;;;;;;;;;;;14.30;99.90;;;;;;10403076;28;20655;-62
2021/04/21 12:52:15;;;;;;;;;;;14.90;99.90;;;;;;10404326;28;20039;-62
2021/04/21 12:57:17;;;;;;;;;;;15.20;99.90;;;;;;10395264;28;20460;-62
2021/04/21 13:02:37;;;;;;;;;;;15.60;99.90;;;;;;10425589;28;20027;-62
2021/04/21 13:07:39;;;;;;;;;;;16.20;99.90;;;;;;10403242;28;19926;-63
2021/04/21 13:12:41;;;;;;;;;;;16.40;99.90;;;;;;10403329;28;19976;-63
2021/04/21 13:17:49;;;;;;;;;;;16.50;99.90;;;;;;10401587;28;20349;-63
2021/04/21 13:22:50;;;;;;;;;;;17.00;94.60;;;;;;10405045;28;19932;-63
2021/04/21 13:27:52;;;;;;;;;;;17.20;84.80;;;;;;10403900;28;20028;-63
2021/04/21 13:32:56;;;;;;;;;;;17.20;75.10;;;;;;10410555;28;19979;-63
2021/04/21 13:37:58;;;;;;;;;;;17.40;77.50;;;;;;10403369;28;19932;-62
2021/04/21 13:42:59;;;;;;;;;;;17.70;67.60;;;;;;10399494;28;20439;-63
2021/04/21 13:48:01;;;;;;;;;;;18.00;61.90;;;;;;10401878;28;20015;-63
2021/04/21 13:53:02;;;;;;;;;;;18.30;58.90;;;;;;10403110;28;19936;-63
2021/04/21 13:58:03;;;;;;;;;;;18.30;54.20;;;;;;10401898;28;20028;-62
2021/04/21 14:03:05;;;;;;;;;;;18.00;57.30;;;;;;10401026;28;19929;-63
2021/04/21 14:08:06;;;;;;;;;;;17.40;57.60;;;;;;10403094;28;20004;-63
2021/04/21 14:13:08;;;;;;;;;;;17.30;59.20;;;;;;10403037;28;19976;-64
2021/04/21 14:18:10;;;;;;;;;;;17.20;62.00;;;;;;10401044;28;19925;-63
2021/04/21 14:23:11;;;;;;;;;;;16.70;59.60;;;;;;10402156;28;19972;-63
2021/04/21 14:28:13;;;;;;;;;;;16.50;62.90;;;;;;10401860;28;19932;-63
2021/04/21 14:33:14;;;;;;;;;;;16.20;59.70;;;;;;10401561;28;19958;-62
2021/04/21 14:38:15;;;;;;;;;;;16.20;59.60;;;;;;10402315;28;20429;-63
2021/04/21 14:43:17;;;;;;;;;;;16.20;59.10;;;;;;10397788;28;20020;-62
2021/04/21 14:48:18;;;;;;;;;;;16.20;58.60;;;;;;10391811;28;20044;-63
2021/04/21 14:53:19;;;;;;;;;;;16.40;62.30;;;;;;10401914;28;20008;-63
2021/04/21 14:58:24;;;;;;;;;;;16.30;69.00;;;;;;10401957;28;19925;-63
2021/04/21 15:03:25;;;;;;;;;;;16.00;73.20;;;;;;10400291;28;20392;-63
2021/04/21 15:08:27;;;;;;;;;;;16.10;72.80;;;;;;10402114;28;19926;-63
2021/04/21 15:13:30;;;;;;;;;;;16.20;72.20;;;;;;10404755;28;19929;-62
2021/04/21 15:18:32;;;;;;;;;;;16.30;72.10;;;;;;10409707;28;20007;-63
2021/04/21 15:23:33;;;;;;;;;;;16.30;76.80;;;;;;10400068;28;20017;-63
2021/04/21 15:28:34;;;;;;;;;;;16.20;79.00;;;;;;10407190;28;20301;-63
2021/04/21 15:33:36;;;;;;;;;;;16.00;79.70;;;;;;10408914;28;19926;-63
2021/04/21 15:38:37;;;;;;;;;;;16.00;77.30;;;;;;10414616;28;20385;-63
2021/04/21 15:43:39;;;;;;;;;;;16.10;78.80;;;;;;10402658;28;19929;-63
2021/04/21 15:48:42;;;;;;;;;;;15.80;80.20;;;;;;10414997;28;20373;-63
2021/04/21 15:53:44;;;;;;;;;;;16.00;81.30;;;;;;10413314;28;20315;-63
2021/04/21 15:58:47;;;;;;;;;;;15.90;82.00;;;;;;10406263;28;19925;-63
2021/04/21 16:03:51;;;;;;;;;;;15.50;83.80;;;;;;10406590;28;19933;-62
2021/04/21 16:08:52;;;;;;;;;;;15.40;83.30;;;;;;10404937;28;20003;-62
2021/04/21 16:13:56;;;;;;;;;;;15.30;83.20;;;;;;10405365;28;19929;-63
2021/04/21 16:18:57;;;;;;;;;;;15.30;84.60;;;;;;10403158;28;20012;-63
2021/04/21 16:23:59;;;;;;;;;;;15.10;84.10;;;;;;10394626;28;20386;-63
2021/04/21 16:29:01;;;;;;;;;;;15.20;82.60;;;;;;10404030;28;20015;-62
2021/04/21 16:34:02;;;;;;;;;;;15.20;81.30;;;;;;10404002;28;19935;-62
2021/04/21 16:39:04;;;;;;;;;;;15.20;88.00;;;;;;10421195;28;20003;-63
2021/04/21 16:44:05;;;;;;;;;;;15.20;84.90;;;;;;10420557;28;20358;-61
2021/04/21 16:49:07;;;;;;;;;;;15.10;92.50;;;;;;10410741;28;19968;-62
2021/04/21 16:54:09;;;;;;;;;;;15.50;90.80;;;;;;10404472;28;20281;-62
2021/04/21 16:59:14;;;;;;;;;;;15.80;83.20;;;;;;10405209;28;19964;-62
2021/04/21 17:04:16;;;;;;;;;;;15.90;81.90;;;;;;10404318;28;20346;-62
2021/04/21 17:09:17;;;;;;;;;;;15.90;83.60;;;;;;10400930;28;19987;-62
2021/04/21 17:14:19;;;;;;;;;;;15.50;85.10;;;;;;10397872;28;20024;-62
2021/04/21 17:19:20;;;;;;;;;;;15.20;78.30;;;;;;10403130;28;19960;-62
2021/04/21 17:24:21;;;;;;;;;;;14.90;87.90;;;;;;10395506;28;20381;-62
2021/04/21 17:29:23;;;;;;;;;;;14.80;83.00;;;;;;10402932;28;19931;-62
2021/04/21 17:34:24;;;;;;;;;;;14.70;78.00;;;;;;10403464;28;20393;-62
2021/04/21 17:39:26;;;;;;;;;;;14.70;85.20;;;;;;10380678;28;19979;-62
2021/04/21 17:44:27;;;;;;;;;;;14.60;77.70;;;;;;10393295;28;19999;-61
2021/04/21 17:49:28;;;;;;;;;;;14.50;74.30;;;;;;10399527;28;19929;-62
2021/04/21 17:54:29;;;;;;;;;;;14.30;85.00;;;;;;10404806;28;19931;-61
2021/04/21 17:59:31;;;;;;;;;;;14.10;84.90;;;;;;10395654;28;19932;-61
2021/04/21 18:04:32;;;;;;;;;;;13.90;83.60;;;;;;10392879;28;20300;-61
2021/04/21 18:09:34;;;;;;;;;;;13.70;84.30;;;;;;10401375;28;19935;-61
2021/04/21 18:14:38;;;;;;;;;;;13.50;82.80;;;;;;10405740;28;19935;-61
2021/04/21 18:19:40;;;;;;;;;;;13.30;78.30;;;;;;10393829;28;20340;-61
2021/04/21 18:24:43;;;;;;;;;;;13.10;81.90;;;;;;10399729;28;20419;-61
2021/04/21 18:29:44;;;;;;;;;;;12.90;83.10;;;;;;10413372;28;19961;-69
2021/04/21 18:34:46;;;;;;;;;;;12.70;85.40;;;;;;10403725;28;19965;-68
2021/04/21 18:39:47;;;;;;;;;;;12.50;81.60;;;;;;10428112;28;19969;-69
2021/04/21 18:44:51;;;;;;;;;;;12.50;80.30;;;;;;10403822;28;20035;-69
2021/04/21 18:49:53;;;;;;;;;;;12.30;85.10;;;;;;10406708;28;19925;-69
2021/04/21 18:54:54;;;;;;;;;;;12.10;87.00;;;;;;10410935;28;19975;-69
2021/04/21 18:59:56;;;;;;;;;;;11.90;83.90;;;;;;10411526;28;20292;-69
2021/04/21 19:04:57;;;;;;;;;;;11.70;88.00;;;;;;10410819;28;20016;-69
2021/04/21 19:10:02;;;;;;;;;;;11.60;89.40;;;;;;10411836;28;19925;-69
2021/04/21 19:15:04;;;;;;;;;;;11.50;90.60;;;;;;10411177;28;19931;-69
2021/04/21 19:20:10;;;;;;;;;;;11.40;91.60;;;;;;10410941;28;19925;-69
2021/04/21 19:25:12;;;;;;;;;;;11.30;93.70;;;;;;10410241;28;20286;-70
2021/04/21 19:30:15;;;;;;;;;;;11.20;93.20;;;;;;10405784;28;20019;-70
2021/04/21 19:35:17;;;;;;;;;;;11.10;92.20;;;;;;10411249;28;20034;-74
2021/04/21 19:40:18;;;;;;;;;;;11.00;95.60;;;;;;10410385;28;20063;-75
2021/04/21 19:45:20;;;;;;;;;;;10.90;97.70;;;;;;10410719;28;20023;-73
2021/04/21 19:50:21;;;;;;;;;;;10.70;99.90;;;;;;10413296;28;20053;-75
2021/04/21 19:55:22;;;;;;;;;;;10.70;99.00;;;;;;10408309;28;19929;-74
2021/04/21 20:00:24;;;;;;;;;;;10.60;99.60;;;;;;10408864;28;20084;-70
2021/04/21 20:05:25;;;;;;;;;;;10.50;99.90;;;;;;10408966;28;20011;-70
2021/04/21 20:10:27;;;;;;;;;;;10.40;99.90;;;;;;10408918;28;19925;-70
2021/04/21 20:15:28;;;;;;;;;;;10.20;99.90;;;;;;10407772;28;20024;-70
2021/04/21 20:20:30;;;;;;;;;;;10.10;99.90;;;;;;10408425;28;20213;-70
2021/04/21 20:25:32;;;;;;;;;;;10.10;99.90;;;;;;10408563;28;19925;-70
2021/04/21 20:30:34;;;;;;;;;;;10.00;99.90;;;;;;10406429;28;20019;-70
2021/04/21 20:35:36;;;;;;;;;;;10.10;99.90;;;;;;10406115;28;20031;-69
2021/04/21 20:40:37;;;;;;;;;;;10.00;99.90;;;;;;10406019;28;20445;-69
2021/04/21 20:45:39;;;;;;;;;;;10.00;99.90;;;;;;10406911;28;20039;-69
2021/04/21 20:50:40;;;;;;;;;;;10.00;99.90;;;;;;10407432;28;20012;-69
2021/04/21 20:55:42;;;;;;;;;;;10.00;99.90;;;;;;10405874;28;19929;-69
2021/04/21 21:00:53;;;;;;;;;;;10.00;99.90;;;;;;10375567;28;20027;-69
2021/04/21 21:05:55;;;;;;;;;;;10.00;99.90;;;;;;10405898;28;20027;-69
2021/04/21 21:10:56;;;;;;;;;;;10.00;99.90;;;;;;10405350;28;20019;-69
2021/04/21 21:15:57;;;;;;;;;;;9.70;99.90;;;;;;10405806;28;20285;-69
2021/04/21 21:20:58;;;;;;;;;;;9.60;99.90;;;;;;10405654;28;19968;-68
2021/04/21 21:26:00;;;;;;;;;;;9.50;99.90;;;;;;10405190;28;19925;-69
2021/04/21 21:31:01;;;;;;;;;;;9.50;99.90;;;;;;10405565;28;20028;-69
2021/04/21 21:36:03;;;;;;;;;;;9.50;99.90;;;;;;10405393;28;20024;-69
2021/04/21 21:41:14;;;;;;;;;;;9.50;99.90;;;;;;10406702;28;19925;-69
2021/04/21 21:46:16;;;;;;;;;;;9.40;99.90;;;;;;10404765;28;19925;-69
2021/04/21 21:51:17;;;;;;;;;;;9.40;99.90;;;;;;10405584;28;20019;-69
2021/04/21 21:56:18;;;;;;;;;;;9.30;99.90;;;;;;10402953;28;20008;-69
2021/04/21 22:01:20;;;;;;;;;;;9.20;99.90;;;;;;10404970;28;19968;-69
2021/04/21 22:06:21;;;;;;;;;;;9.20;99.90;;;;;;10404228;28;20012;-69
2021/04/21 22:11:24;;;;;;;;;;;9.00;99.90;;;;;;10405246;28;20023;-68
2021/04/21 22:16:29;;;;;;;;;;;9.10;99.90;;;;;;10403740;28;19933;-69
2021/04/21 22:21:31;;;;;;;;;;;9.00;99.90;;;;;;10404169;28;20389;-69
2021/04/21 22:26:32;;;;;;;;;;;8.90;99.90;;;;;;10404996;28;20310;-69
2021/04/21 22:31:34;;;;;;;;;;;8.80;99.90;;;;;;10404019;28;20381;-69
2021/04/21 22:36:36;;;;;;;;;;;8.80;99.90;;;;;;10403510;28;20031;-69
2021/04/21 22:41:37;;;;;;;;;;;8.70;99.90;;;;;;10402700;28;20021;-69
2021/04/21 22:46:39;;;;;;;;;;;8.60;99.90;;;;;;10404110;28;19976;-69
2021/04/21 22:51:41;;;;;;;;;;;8.50;99.90;;;;;;10403351;28;20012;-69
2021/04/21 22:56:42;;;;;;;;;;;8.30;99.90;;;;;;10401905;28;20005;-69
2021/04/21 23:01:43;;;;;;;;;;;8.30;99.90;;;;;;10404119;28;20023;-68
2021/04/21 23:06:45;;;;;;;;;;;8.30;99.90;;;;;;10403534;28;20281;-69
2021/04/21 23:11:46;;;;;;;;;;;8.20;99.90;;;;;;10402120;28;20016;-69
2021/04/21 23:16:48;;;;;;;;;;;8.10;99.90;;;;;;10403749;28;19983;-69
2021/04/21 23:21:49;;;;;;;;;;;8.00;99.90;;;;;;10403252;28;19925;-69
2021/04/21 23:26:50;;;;;;;;;;;8.00;99.90;;;;;;10403374;28;20039;-69
2021/04/21 23:31:52;;;;;;;;;;;7.90;99.90;;;;;;10402215;28;20241;-69
2021/04/21 23:36:53;;;;;;;;;;;7.90;99.90;;;;;;10410788;28;20695;-69
2021/04/21 23:41:55;;;;;;;;;;;7.90;99.90;;;;;;10409026;28;20056;-69
2021/04/21 23:46:56;;;;;;;;;;;7.80;99.90;;;;;;10410375;28;20004;-69
2021/04/21 23:51:58;;;;;;;;;;;7.80;99.90;;;;;;10409755;28;19933;-69
2021/04/21 23:56:59;;;;;;;;;;;7.70;99.90;;;;;;10410086;28;20019;-69
